createdAt,value
2022-08-19T00:01:29.036Z,18.34
2022-08-19T00:04:39.191Z,18.40
2022-08-19T00:07:49.474Z,18.62
2022-08-19T00:10:58.225Z,18.82
2022-08-19T00:14:08.303Z,18.63
2022-08-19T00:17:18.315Z,18.53
2022-08-19T00:20:26.932Z,18.65
2022-08-19T00:23:37.243Z,18.59
2022-08-19T00:26:47.180Z,18.52
2022-08-19T00:29:55.807Z,18.57
2022-08-19T00:33:10.053Z,18.49
2022-08-19T00:36:19.560Z,18.55
2022-08-19T00:39:28.092Z,18.44
2022-08-19T00:42:40.555Z,18.60
2022-08-19T00:46:15.734Z,18.54
2022-08-19T00:49:36.416Z,18.61
2022-08-19T00:52:51.160Z,18.64
2022-08-19T00:56:05.223Z,18.68
2022-08-19T00:59:14.501Z,18.76
2022-08-19T01:02:45.537Z,18.80
2022-08-19T01:05:57.720Z,18.68
2022-08-19T01:09:07.645Z,18.89
2022-08-19T01:12:17.081Z,18.72
2022-08-19T01:15:32.071Z,18.59
2022-08-19T01:18:43.932Z,18.47
2022-08-19T01:22:14.199Z,18.39
2022-08-19T01:25:31.326Z,18.43
2022-08-19T01:28:41.021Z,18.38
2022-08-19T01:31:54.477Z,18.28
2022-08-19T01:35:03.723Z,18.43
2022-08-19T01:38:25.834Z,18.50
2022-08-19T01:41:37.053Z,18.55
2022-08-19T01:44:45.251Z,18.50
2022-08-19T01:48:02.152Z,18.47
2022-08-19T01:51:12.780Z,18.72
2022-08-19T01:54:27.801Z,18.62
2022-08-19T01:57:38.622Z,18.59
2022-08-19T02:00:47.386Z,18.60
2022-08-19T02:03:56.885Z,18.51
2022-08-19T02:07:07.082Z,18.60
2022-08-19T02:10:21.988Z,18.65
2022-08-19T02:13:33.594Z,18.70
2022-08-19T02:16:41.850Z,18.63
2022-08-19T02:19:50.176Z,18.69
2022-08-19T02:22:58.428Z,18.68
2022-08-19T02:26:07.410Z,18.65
2022-08-19T02:29:17.956Z,18.73
2022-08-19T02:32:26.417Z,18.74
2022-08-19T02:35:34.736Z,18.76
2022-08-19T02:38:47.683Z,18.59
2022-08-19T02:42:03.400Z,18.43
2022-08-19T02:45:14.189Z,18.19
2022-08-19T02:48:25.498Z,18.17
2022-08-19T02:51:37.681Z,18.10
2022-08-19T02:54:46.931Z,18.07
2022-08-19T02:57:55.629Z,18.01
2022-08-19T03:01:09.872Z,18.07
2022-08-19T03:04:28.117Z,17.95
2022-08-19T03:07:37.757Z,17.78
2022-08-19T03:10:49.580Z,17.70
2022-08-19T03:13:59.458Z,17.62
2022-08-19T03:17:09.909Z,17.72
2022-08-19T03:20:18.595Z,17.87
2022-08-19T03:23:27.122Z,17.80
2022-08-19T03:26:36.044Z,17.86
2022-08-19T03:29:44.858Z,17.91
2022-08-19T03:32:57.328Z,17.78
2022-08-19T03:36:10.817Z,17.81
2022-08-19T03:39:19.128Z,17.79
2022-08-19T03:42:38.297Z,17.88
2022-08-19T03:46:05.138Z,17.82
2022-08-19T03:49:14.976Z,17.74
2022-08-19T03:52:23.418Z,17.84
2022-08-19T03:55:31.674Z,17.89
2022-08-19T03:58:40.759Z,17.78
2022-08-19T04:01:50.724Z,17.89
2022-08-19T04:05:00.303Z,17.98
2022-08-19T04:08:13.265Z,18.15
2022-08-19T04:11:43.221Z,18.04
2022-08-19T04:14:52.386Z,18.19
2022-08-19T04:18:00.622Z,18.23
2022-08-19T04:21:17.306Z,18.15
2022-08-19T04:24:25.814Z,18.16
2022-08-19T04:27:35.029Z,18.16
2022-08-19T04:30:46.276Z,18.22
2022-08-19T04:33:56.179Z,18.33
2022-08-19T04:37:13.708Z,18.33
2022-08-19T04:40:39.485Z,18.31
2022-08-19T04:43:49.818Z,18.16
2022-08-19T04:46:58.468Z,18.14
2022-08-19T04:50:12.802Z,18.26
2022-08-19T04:53:22.292Z,18.23
2022-08-19T04:56:31.229Z,18.36
2022-08-19T04:59:41.154Z,18.24
2022-08-19T05:02:50.249Z,18.12
2022-08-19T05:05:59.348Z,18.09
2022-08-19T05:09:08.856Z,18.28
2022-08-19T05:12:17.492Z,18.49
2022-08-19T05:15:25.729Z,18.45
2022-08-19T05:18:51.929Z,18.46
2022-08-19T05:22:19.295Z,18.41
2022-08-19T05:25:28.979Z,18.38
2022-08-19T05:28:37.193Z,18.40
2022-08-19T05:31:46.581Z,18.37
2022-08-19T05:34:55.527Z,18.35
2022-08-19T05:38:03.772Z,18.56
2022-08-19T05:41:16.191Z,18.57
2022-08-19T05:44:25.004Z,18.45
2022-08-19T05:47:33.176Z,18.62
2022-08-19T05:50:43.375Z,18.63
2022-08-19T05:53:52.944Z,18.75
2022-08-19T05:57:03.920Z,18.81
2022-08-19T06:00:14.882Z,18.62
2022-08-19T06:03:26.157Z,18.76
2022-08-19T06:06:35.674Z,18.75
2022-08-19T06:09:58.973Z,18.73
2022-08-19T06:13:12.588Z,18.73
2022-08-19T06:16:23.369Z,18.73
2022-08-19T06:19:33.342Z,18.76
2022-08-19T06:22:44.271Z,18.74
2022-08-19T06:25:52.586Z,18.76
2022-08-19T06:29:02.332Z,18.73
2022-08-19T06:32:10.691Z,18.73
2022-08-19T06:35:22.402Z,18.84
2022-08-19T06:38:30.792Z,18.88
2022-08-19T06:41:47.134Z,18.99
2022-08-19T06:45:04.089Z,19.13
2022-08-19T06:48:19.573Z,19.19
2022-08-19T06:54:55.570Z,19.24
2022-08-19T06:58:05.285Z,19.33
2022-08-19T07:01:15.373Z,19.22
2022-08-19T07:04:27.895Z,19.04
2022-08-19T07:07:36.605Z,18.98
2022-08-19T07:10:46.712Z,19.17
2022-08-19T07:13:55.753Z,18.92
2022-08-19T07:17:17.834Z,18.90
2022-08-19T07:20:28.702Z,18.95
2022-08-19T07:26:51.934Z,18.80
2022-08-19T07:30:00.767Z,19.14
2022-08-19T07:33:10.595Z,19.58
2022-08-19T07:36:23.178Z,19.90
2022-08-19T07:39:38.447Z,20.59
2022-08-19T07:42:46.714Z,20.96
2022-08-19T07:45:57.449Z,21.92
2022-08-19T07:49:19.294Z,21.98
2022-08-19T07:52:28.469Z,21.97
2022-08-19T07:55:40.460Z,21.16
2022-08-19T08:02:03.978Z,20.57
2022-08-19T08:05:35.586Z,20.34
2022-08-19T08:09:02.722Z,20.05
2022-08-19T08:12:34.131Z,19.83
2022-08-19T08:15:46.645Z,19.75
2022-08-19T08:18:56.624Z,19.67
2022-08-19T08:22:32.036Z,19.56
2022-08-19T08:25:43.118Z,19.41
2022-08-19T08:28:54.485Z,19.07
2022-08-19T08:32:14.934Z,19.26
2022-08-19T08:35:27.789Z,19.23
2022-08-19T08:38:40.495Z,19.34
2022-08-19T08:42:00.992Z,19.29
2022-08-19T08:45:20.637Z,19.14
2022-08-19T08:48:42.613Z,19.16
2022-08-19T08:52:00.005Z,19.17
2022-08-19T08:55:17.418Z,19.16
2022-08-19T08:58:43.078Z,19.46
2022-08-19T09:01:51.367Z,19.66
2022-08-19T09:05:00.232Z,19.89
2022-08-19T09:08:25.047Z,20.01
2022-08-19T09:11:52.520Z,20.36
2022-08-19T09:15:09.202Z,20.56
2022-08-19T09:18:19.663Z,20.81
2022-08-19T09:21:33.017Z,21.26
2022-08-19T09:24:42.583Z,21.37
2022-08-19T09:28:03.077Z,21.46
2022-08-19T09:31:17.417Z,21.66
2022-08-19T09:34:26.819Z,22.37
2022-08-19T09:37:36.325Z,22.64
2022-08-19T09:40:45.278Z,23.37
2022-08-19T09:43:58.493Z,24.16
2022-08-19T09:47:09.554Z,25.16
2022-08-19T09:50:19.180Z,24.47
2022-08-19T09:53:28.666Z,24.18
2022-08-19T09:56:37.249Z,24.37
2022-08-19T09:59:47.402Z,24.54
2022-08-19T10:02:56.389Z,24.22
2022-08-19T10:06:15.223Z,24.43
2022-08-19T10:09:34.478Z,23.64
2022-08-19T10:12:49.428Z,23.86
2022-08-19T10:16:07.720Z,24.03
2022-08-19T10:19:16.170Z,24.08
2022-08-19T10:22:36.759Z,23.91
2022-08-19T10:25:45.615Z,24.20
2022-08-19T10:28:58.433Z,24.32
2022-08-19T10:32:11.047Z,24.12
2022-08-19T10:35:21.737Z,23.97
2022-08-19T10:38:32.440Z,23.80
2022-08-19T10:41:44.601Z,22.91
2022-08-19T10:44:53.949Z,23.52
2022-08-19T10:48:04.094Z,24.17
2022-08-19T10:51:31.237Z,24.40
2022-08-19T10:54:56.885Z,24.16
2022-08-19T10:58:14.630Z,24.00
2022-08-19T11:01:23.439Z,23.22
2022-08-19T11:04:33.504Z,23.04
2022-08-19T11:07:43.080Z,22.49
2022-08-19T11:10:54.483Z,23.33
2022-08-19T11:14:02.829Z,23.43
2022-08-19T11:17:12.201Z,24.14
2022-08-19T11:20:21.834Z,24.51
2022-08-19T11:23:30.193Z,24.98
2022-08-19T11:26:42.479Z,24.44
2022-08-19T11:29:55.723Z,24.60
2022-08-19T11:33:05.999Z,24.04
2022-08-19T11:36:16.284Z,24.92
2022-08-19T11:39:25.410Z,23.94
2022-08-19T11:42:59.954Z,24.92
2022-08-19T11:46:10.805Z,25.60
2022-08-19T11:49:22.114Z,25.38
2022-08-19T11:52:31.706Z,25.37
2022-08-19T11:55:43.375Z,25.22
2022-08-19T11:58:54.203Z,25.36
2022-08-19T12:02:02.359Z,25.56
2022-08-19T12:05:12.885Z,24.74
2022-08-19T12:08:23.205Z,25.39
2022-08-19T12:11:34.563Z,25.54
2022-08-19T12:14:43.262Z,24.50
2022-08-19T12:17:51.456Z,24.39
2022-08-19T12:21:02.422Z,24.30
2022-08-19T12:24:12.252Z,24.45
2022-08-19T12:27:32.325Z,24.94
2022-08-19T12:30:51.124Z,25.34
2022-08-19T12:33:59.925Z,25.04
2022-08-19T12:37:09.430Z,23.47
2022-08-19T12:40:20.732Z,22.10
2022-08-19T12:43:31.330Z,22.19
2022-08-19T12:46:40.245Z,22.02
2022-08-19T12:49:55.502Z,22.31
2022-08-19T12:53:05.090Z,22.96
2022-08-19T12:56:17.497Z,22.60
2022-08-19T12:59:32.392Z,22.89
2022-08-19T13:02:51.147Z,22.75
2022-08-19T13:06:04.012Z,22.35
2022-08-19T13:09:12.881Z,22.39
2022-08-19T13:12:24.945Z,22.13
2022-08-19T13:15:37.187Z,22.57
2022-08-19T13:18:51.999Z,22.50
2022-08-19T13:22:00.729Z,22.65
2022-08-19T13:25:11.039Z,22.39
2022-08-19T13:28:20.814Z,22.16
2022-08-19T13:31:59.305Z,22.59
2022-08-19T13:35:08.346Z,23.08
2022-08-19T13:38:23.086Z,23.29
2022-08-19T13:41:31.924Z,23.51
2022-08-19T13:44:41.701Z,23.89
2022-08-19T13:47:53.685Z,23.51
2022-08-19T13:51:12.133Z,22.81
2022-08-19T13:54:23.596Z,22.72
2022-08-19T13:57:31.866Z,22.05
2022-08-19T14:00:47.274Z,22.64
2022-08-19T14:03:56.025Z,23.07
2022-08-19T14:07:07.233Z,23.46
2022-08-19T14:10:17.630Z,23.63
2022-08-19T14:13:26.624Z,23.80
2022-08-19T14:16:36.386Z,23.67
2022-08-19T14:19:48.166Z,23.58
2022-08-19T14:22:57.460Z,22.85
2022-08-19T14:26:07.617Z,23.09
2022-08-19T14:29:15.960Z,23.32
2022-08-19T14:32:25.781Z,23.22
2022-08-19T14:35:36.292Z,23.41
2022-08-19T14:38:45.342Z,23.44
2022-08-19T14:41:55.138Z,23.56
2022-08-19T14:45:03.484Z,23.47
2022-08-19T14:48:19.401Z,23.39
2022-08-19T14:51:29.287Z,23.01
2022-08-19T14:54:40.522Z,23.43
2022-08-19T14:57:48.999Z,23.41
2022-08-19T15:00:57.377Z,23.18
2022-08-19T15:04:07.475Z,23.29
2022-08-19T15:07:15.933Z,23.43
2022-08-19T15:10:25.544Z,23.42
2022-08-19T15:13:33.943Z,23.58
2022-08-19T15:16:43.645Z,22.78
2022-08-19T15:19:54.446Z,22.75
2022-08-19T15:23:03.106Z,22.32
2022-08-19T15:26:14.264Z,22.67
2022-08-19T15:29:26.549Z,23.03
2022-08-19T15:32:35.803Z,23.08
2022-08-19T15:35:46.480Z,22.42
2022-08-19T15:38:55.586Z,22.68
2022-08-19T15:42:04.140Z,22.74
2022-08-19T15:45:16.969Z,22.37
2022-08-19T15:48:26.555Z,22.05
2022-08-19T15:51:39.333Z,21.61
2022-08-19T15:54:47.774Z,21.49
2022-08-19T15:58:27.714Z,22.30
2022-08-19T16:01:55.386Z,22.94
2022-08-19T16:05:25.455Z,22.99
2022-08-19T16:08:48.812Z,22.56
2022-08-19T16:12:02.402Z,22.23
2022-08-19T16:15:15.087Z,22.10
2022-08-19T16:18:26.873Z,22.66
2022-08-19T16:21:39.622Z,22.67
2022-08-19T16:24:51.666Z,22.91
2022-08-19T16:28:08.023Z,22.95
2022-08-19T16:31:17.437Z,22.98
2022-08-19T16:34:27.111Z,23.04
2022-08-19T16:37:35.839Z,22.79
2022-08-19T16:40:49.207Z,22.25
2022-08-19T16:43:57.748Z,22.09
2022-08-19T16:47:06.814Z,22.10
2022-08-19T16:50:21.902Z,22.21
2022-08-19T16:53:38.511Z,22.03
2022-08-19T16:56:49.062Z,21.96
2022-08-19T16:59:59.810Z,21.68
2022-08-19T17:03:14.742Z,21.79
2022-08-19T17:06:27.563Z,21.74
2022-08-19T17:09:35.846Z,21.30
2022-08-19T17:12:47.740Z,21.34
2022-08-19T17:15:57.095Z,21.28
2022-08-19T17:19:08.680Z,20.88
2022-08-19T17:22:20.008Z,20.75
2022-08-19T17:25:31.489Z,20.58
2022-08-19T17:28:41.665Z,20.51
2022-08-19T17:31:51.632Z,20.50
2022-08-19T17:35:00.649Z,20.23
2022-08-19T17:38:11.183Z,20.22
2022-08-19T17:41:19.911Z,20.10
2022-08-19T17:44:33.205Z,20.04
2022-08-19T17:47:42.639Z,19.80
2022-08-19T17:50:53.910Z,19.79
2022-08-19T17:54:05.962Z,19.79
2022-08-19T17:57:16.312Z,19.65
2022-08-19T18:00:31.823Z,19.60
2022-08-19T18:03:41.837Z,19.66
2022-08-19T18:06:53.641Z,19.75
2022-08-19T18:10:02.842Z,19.45
2022-08-19T18:13:17.029Z,19.06
2022-08-19T18:16:29.537Z,19.11
2022-08-19T18:19:41.093Z,18.87
2022-08-19T18:22:52.715Z,18.92
2022-08-19T18:26:01.300Z,19.00
2022-08-19T18:29:10.662Z,18.99
2022-08-19T18:32:23.838Z,18.79
2022-08-19T18:35:33.800Z,18.81
2022-08-19T18:39:06.338Z,18.72
2022-08-19T18:42:36.859Z,18.71
2022-08-19T18:46:07.267Z,18.49
2022-08-19T18:49:23.604Z,18.50
2022-08-19T18:52:33.530Z,18.43
2022-08-19T18:55:42.329Z,18.31
2022-08-19T18:58:52.899Z,18.33
2022-08-19T19:02:02.863Z,18.36
2022-08-19T19:05:15.227Z,18.29
2022-08-19T19:08:26.791Z,18.40
2022-08-19T19:11:40.295Z,18.49
2022-08-19T19:14:52.002Z,18.48
2022-08-19T19:18:00.930Z,18.40
2022-08-19T19:21:15.572Z,18.29
2022-08-19T19:24:37.725Z,18.31
2022-08-19T19:27:51.397Z,18.42
2022-08-19T19:31:01.903Z,18.37
2022-08-19T19:34:29.765Z,18.32
2022-08-19T19:37:53.948Z,18.15
2022-08-19T19:41:02.737Z,18.01
2022-08-19T19:44:29.988Z,18.01
2022-08-19T19:47:39.687Z,17.98
2022-08-19T19:50:56.067Z,17.83
2022-08-19T19:54:06.773Z,17.94
2022-08-19T19:57:16.222Z,17.88
2022-08-19T20:00:26.246Z,17.85
2022-08-19T20:03:35.952Z,17.77
2022-08-19T20:06:45.818Z,17.75
2022-08-19T20:10:00.075Z,17.73
2022-08-19T20:13:10.731Z,17.57
2022-08-19T20:16:19.585Z,17.55
2022-08-19T20:19:36.422Z,17.57
2022-08-19T20:22:48.703Z,17.60
2022-08-19T20:25:58.908Z,17.59
2022-08-19T20:29:13.444Z,17.51
2022-08-19T20:32:37.728Z,17.56
2022-08-19T20:35:49.271Z,17.57
2022-08-19T20:38:58.195Z,17.58
2022-08-19T20:42:09.309Z,17.44
2022-08-19T20:45:33.675Z,17.50
2022-08-19T20:48:43.050Z,17.52
2022-08-19T20:51:54.736Z,17.51
2022-08-19T20:55:03.871Z,17.40
2022-08-19T20:58:17.795Z,17.53
2022-08-19T21:01:26.694Z,17.49
2022-08-19T21:04:35.196Z,17.44
2022-08-19T21:07:51.900Z,17.37
2022-08-19T21:11:03.677Z,17.30
2022-08-19T21:14:15.725Z,17.31
2022-08-19T21:17:25.816Z,17.50
2022-08-19T21:20:34.423Z,17.55
2022-08-19T21:23:44.186Z,17.44
2022-08-19T21:26:52.755Z,17.46
2022-08-19T21:30:04.655Z,17.59
2022-08-19T21:33:13.661Z,17.50
2022-08-19T21:36:22.957Z,17.56
2022-08-19T21:39:32.332Z,17.46
2022-08-19T21:42:41.170Z,17.46
2022-08-19T21:45:51.992Z,17.57
2022-08-19T21:49:00.800Z,17.60
2022-08-19T21:52:13.990Z,17.57
2022-08-19T21:55:52.818Z,17.61
2022-08-19T21:59:02.104Z,17.68
2022-08-19T22:02:21.676Z,17.61
2022-08-19T22:05:31.388Z,17.56
2022-08-19T22:08:41.403Z,17.59
2022-08-19T22:11:50.059Z,17.54
2022-08-19T22:15:01.898Z,17.54
2022-08-19T22:18:13.840Z,17.47
2022-08-19T22:21:40.374Z,17.36
2022-08-19T22:24:49.867Z,17.43
2022-08-19T22:28:00.620Z,17.53
2022-08-19T22:31:12.891Z,17.49
2022-08-19T22:34:23.404Z,17.34
2022-08-19T22:37:32.852Z,17.42
2022-08-19T22:40:48.619Z,17.53
2022-08-19T22:43:58.241Z,17.33
2022-08-19T22:47:07.943Z,17.26
2022-08-19T22:50:18.949Z,17.25
2022-08-19T22:53:27.530Z,17.31
2022-08-19T22:56:36.543Z,17.16
2022-08-19T22:59:45.355Z,17.07
2022-08-19T23:02:55.172Z,17.13
2022-08-19T23:06:05.382Z,17.11
2022-08-19T23:09:16.975Z,17.13
2022-08-19T23:12:33.559Z,16.99
2022-08-19T23:15:42.316Z,16.99
2022-08-19T23:18:51.011Z,17.06
2022-08-19T23:22:08.396Z,17.10
2022-08-19T23:25:23.692Z,17.14
2022-08-19T23:28:50.338Z,17.06
2022-08-19T23:31:59.187Z,17.17
2022-08-19T23:35:09.283Z,17.09
2022-08-19T23:38:22.754Z,16.98
2022-08-19T23:41:31.383Z,16.95
2022-08-19T23:44:52.377Z,17.05
2022-08-19T23:48:03.373Z,16.93
2022-08-19T23:51:16.499Z,17.07
2022-08-19T23:54:43.191Z,17.01
2022-08-19T23:57:53.116Z,17.07
